sensor_id;sensor_type;location;lat;lon;timestamp;temperature;humidity
8563;DHT22;16392;52.508;13.468;2024-02-14T00:00:38;3.50;99.90
8563;DHT22;16392;52.508;13.468;2024-02-14T00:03:06;3.40;99.90
8563;DHT22;16392;52.508;13.468;2024-02-14T00:05:33;3.40;99.90
8563;DHT22;16392;52.508;13.468;2024-02-14T00:08:01;3.40;99.90
8563;DHT22;16392;52.508;13.468;2024-02-14T00:10:30;3.40;99.90
8563;DHT22;16392;52.508;13.468;2024-02-14T00:12:57;3.40;99.90
8563;DHT22;16392;52.508;13.468;2024-02-14T00:15:24;3.40;99.90
8563;DHT22;16392;52.508;13.468;2024-02-14T00:17:52;3.30;99.90
8563;DHT22;16392;52.508;13.468;2024-02-14T00:20:18;3.20;99.90
8563;DHT22;16392;52.508;13.468;2024-02-14T00:22:45;3.20;99.90
8563;DHT22;16392;52.508;13.468;2024-02-14T00:25:12;3.20;99.90
8563;DHT22;16392;52.508;13.468;2024-02-14T00:27:40;3.20;99.90
8563;DHT22;16392;52.508;13.468;2024-02-14T00:30:08;3.10;99.90
8563;DHT22;16392;52.508;13.468;2024-02-14T00:32:35;3.10;99.90
8563;DHT22;16392;52.508;13.468;2024-02-14T00:35:02;3.00;99.90
8563;DHT22;16392;52.508;13.468;2024-02-14T00:37:29;3.00;99.90
8563;DHT22;16392;52.508;13.468;2024-02-14T00:39:56;2.90;99.90
8563;DHT22;16392;52.508;13.468;2024-02-14T00:42:23;3.00;99.90
8563;DHT22;16392;52.508;13.468;2024-02-14T00:44:52;3.10;99.90
8563;DHT22;16392;52.508;13.468;2024-02-14T00:47:18;3.00;99.90
8563;DHT22;16392;52.508;13.468;2024-02-14T00:49:45;3.00;99.90
8563;DHT22;16392;52.508;13.468;2024-02-14T00:52:12;3.00;99.90
8563;DHT22;16392;52.508;13.468;2024-02-14T00:54:38;3.00;99.90
8563;DHT22;16392;52.508;13.468;2024-02-14T00:57:05;3.10;99.90
8563;DHT22;16392;52.508;13.468;2024-02-14T00:59:33;3.10;99.90
8563;DHT22;16392;52.508;13.468;2024-02-14T01:02:01;3.00;99.90
8563;DHT22;16392;52.508;13.468;2024-02-14T01:04:27;3.00;99.90
8563;DHT22;16392;52.508;13.468;2024-02-14T01:06:54;3.00;99.90
8563;DHT22;16392;52.508;13.468;2024-02-14T01:09:21;3.00;99.90
8563;DHT22;16392;52.508;13.468;2024-02-14T01:11:47;3.10;99.90
8563;DHT22;16392;52.508;13.468;2024-02-14T01:14:14;3.00;99.90
8563;DHT22;16392;52.508;13.468;2024-02-14T01:16:44;3.00;99.90
8563;DHT22;16392;52.508;13.468;2024-02-14T01:19:14;3.00;99.90
8563;DHT22;16392;52.508;13.468;2024-02-14T01:21:41;3.00;99.90
8563;DHT22;16392;52.508;13.468;2024-02-14T01:24:07;3.00;99.90
8563;DHT22;16392;52.508;13.468;2024-02-14T01:26:34;3.00;99.90
8563;DHT22;16392;52.508;13.468;2024-02-14T01:29:01;2.90;99.90
8563;DHT22;16392;52.508;13.468;2024-02-14T01:31:28;3.00;99.90
8563;DHT22;16392;52.508;13.468;2024-02-14T01:33:56;2.90;99.90
8563;DHT22;16392;52.508;13.468;2024-02-14T01:36:23;3.00;99.90
8563;DHT22;16392;52.508;13.468;2024-02-14T01:38:50;3.00;99.90
8563;DHT22;16392;52.508;13.468;2024-02-14T01:41:17;3.00;99.90
8563;DHT22;16392;52.508;13.468;2024-02-14T01:43:46;3.00;99.90
8563;DHT22;16392;52.508;13.468;2024-02-14T01:46:13;3.00;99.90
8563;DHT22;16392;52.508;13.468;2024-02-14T01:48:41;3.00;99.90
8563;DHT22;16392;52.508;13.468;2024-02-14T01:51:10;3.00;99.90
8563;DHT22;16392;52.508;13.468;2024-02-14T01:53:39;3.00;99.90
8563;DHT22;16392;52.508;13.468;2024-02-14T01:56:08;3.00;99.90
8563;DHT22;16392;52.508;13.468;2024-02-14T01:58:35;3.00;99.90
8563;DHT22;16392;52.508;13.468;2024-02-14T02:01:03;3.00;99.90
8563;DHT22;16392;52.508;13.468;2024-02-14T02:03:30;3.00;99.90
8563;DHT22;16392;52.508;13.468;2024-02-14T02:06:01;3.00;99.90
8563;DHT22;16392;52.508;13.468;2024-02-14T02:08:28;3.00;99.90
8563;DHT22;16392;52.508;13.468;2024-02-14T02:10:56;3.00;99.90
8563;DHT22;16392;52.508;13.468;2024-02-14T02:13:23;3.00;99.90
8563;DHT22;16392;52.508;13.468;2024-02-14T02:15:51;3.00;99.90
8563;DHT22;16392;52.508;13.468;2024-02-14T02:18:18;3.00;99.90
8563;DHT22;16392;52.508;13.468;2024-02-14T02:20:45;3.00;99.90
8563;DHT22;16392;52.508;13.468;2024-02-14T02:23:15;3.00;99.90
8563;DHT22;16392;52.508;13.468;2024-02-14T02:25:41;3.00;99.90
8563;DHT22;16392;52.508;13.468;2024-02-14T02:28:09;3.00;99.90
8563;DHT22;16392;52.508;13.468;2024-02-14T02:30:36;3.00;99.90
8563;DHT22;16392;52.508;13.468;2024-02-14T02:33:04;3.00;99.90
8563;DHT22;16392;52.508;13.468;2024-02-14T02:35:31;3.00;99.90
8563;DHT22;16392;52.508;13.468;2024-02-14T02:37:58;3.00;99.90
8563;DHT22;16392;52.508;13.468;2024-02-14T02:40:27;3.00;99.90
8563;DHT22;16392;52.508;13.468;2024-02-14T02:42:54;2.90;99.90
8563;DHT22;16392;52.508;13.468;2024-02-14T02:45:21;2.90;99.90
8563;DHT22;16392;52.508;13.468;2024-02-14T02:47:50;2.90;99.90
8563;DHT22;16392;52.508;13.468;2024-02-14T02:50:17;2.90;99.90
8563;DHT22;16392;52.508;13.468;2024-02-14T02:52:45;3.00;99.90
8563;DHT22;16392;52.508;13.468;2024-02-14T02:55:12;3.00;99.90
8563;DHT22;16392;52.508;13.468;2024-02-14T02:57:41;3.00;99.90
8563;DHT22;16392;52.508;13.468;2024-02-14T03:00:10;3.00;99.90
8563;DHT22;16392;52.508;13.468;2024-02-14T03:02:38;3.00;99.90
8563;DHT22;16392;52.508;13.468;2024-02-14T03:05:07;3.00;99.90
8563;DHT22;16392;52.508;13.468;2024-02-14T03:07:35;3.00;99.90
8563;DHT22;16392;52.508;13.468;2024-02-14T03:10:03;3.00;99.90
8563;DHT22;16392;52.508;13.468;2024-02-14T03:12:30;3.10;99.90
8563;DHT22;16392;52.508;13.468;2024-02-14T03:14:59;3.10;99.90
8563;DHT22;16392;52.508;13.468;2024-02-14T03:17:26;3.10;99.90
8563;DHT22;16392;52.508;13.468;2024-02-14T03:19:54;3.10;99.90
8563;DHT22;16392;52.508;13.468;2024-02-14T03:22:22;3.10;99.90
8563;DHT22;16392;52.508;13.468;2024-02-14T03:24:48;3.10;99.90
8563;DHT22;16392;52.508;13.468;2024-02-14T03:27:15;3.10;99.90
8563;DHT22;16392;52.508;13.468;2024-02-14T03:29:42;3.10;99.90
8563;DHT22;16392;52.508;13.468;2024-02-14T03:32:10;3.10;99.90
8563;DHT22;16392;52.508;13.468;2024-02-14T03:34:37;3.10;99.90
8563;DHT22;16392;52.508;13.468;2024-02-14T03:37:04;3.10;99.90
8563;DHT22;16392;52.508;13.468;2024-02-14T03:39:32;3.10;99.90
8563;DHT22;16392;52.508;13.468;2024-02-14T03:41:59;3.10;99.90
8563;DHT22;16392;52.508;13.468;2024-02-14T03:44:28;3.10;99.90
8563;DHT22;16392;52.508;13.468;2024-02-14T03:46:55;3.10;99.90
8563;DHT22;16392;52.508;13.468;2024-02-14T03:49:23;3.20;99.90
8563;DHT22;16392;52.508;13.468;2024-02-14T03:51:51;3.20;99.90
8563;DHT22;16392;52.508;13.468;2024-02-14T03:54:20;3.20;99.90
8563;DHT22;16392;52.508;13.468;2024-02-14T03:56:47;3.30;99.90
8563;DHT22;16392;52.508;13.468;2024-02-14T03:59:14;3.20;99.90
8563;DHT22;16392;52.508;13.468;2024-02-14T04:01:44;3.20;99.90
8563;DHT22;16392;52.508;13.468;2024-02-14T04:04:10;3.20;99.90
8563;DHT22;16392;52.508;13.468;2024-02-14T04:06:38;3.20;99.90
8563;DHT22;16392;52.508;13.468;2024-02-14T04:09:08;3.30;99.90
8563;DHT22;16392;52.508;13.468;2024-02-14T04:11:34;3.20;99.90
8563;DHT22;16392;52.508;13.468;2024-02-14T04:14:02;3.20;99.90
8563;DHT22;16392;52.508;13.468;2024-02-14T04:16:28;3.20;99.90
8563;DHT22;16392;52.508;13.468;2024-02-14T04:18:55;3.20;99.90
8563;DHT22;16392;52.508;13.468;2024-02-14T04:21:22;3.20;99.90
8563;DHT22;16392;52.508;13.468;2024-02-14T04:23:50;3.20;99.90
8563;DHT22;16392;52.508;13.468;2024-02-14T04:26:19;3.20;99.90
8563;DHT22;16392;52.508;13.468;2024-02-14T04:28:46;3.20;99.90
8563;DHT22;16392;52.508;13.468;2024-02-14T04:31:13;3.20;99.90
8563;DHT22;16392;52.508;13.468;2024-02-14T04:33:40;3.30;99.90
8563;DHT22;16392;52.508;13.468;2024-02-14T04:36:07;3.30;99.90
8563;DHT22;16392;52.508;13.468;2024-02-14T04:38:33;3.30;99.90
8563;DHT22;16392;52.508;13.468;2024-02-14T04:41:01;3.30;99.90
8563;DHT22;16392;52.508;13.468;2024-02-14T04:43:28;3.30;99.90
8563;DHT22;16392;52.508;13.468;2024-02-14T04:45:55;3.40;99.90
8563;DHT22;16392;52.508;13.468;2024-02-14T04:48:22;3.40;99.90
8563;DHT22;16392;52.508;13.468;2024-02-14T04:50:48;3.40;99.90
8563;DHT22;16392;52.508;13.468;2024-02-14T04:53:15;3.40;99.90
8563;DHT22;16392;52.508;13.468;2024-02-14T04:55:43;3.40;99.90
8563;DHT22;16392;52.508;13.468;2024-02-14T04:58:11;3.40;99.90
8563;DHT22;16392;52.508;13.468;2024-02-14T05:00:38;3.40;99.90
8563;DHT22;16392;52.508;13.468;2024-02-14T05:03:05;3.40;99.90
8563;DHT22;16392;52.508;13.468;2024-02-14T05:05:32;3.40;99.90
8563;DHT22;16392;52.508;13.468;2024-02-14T05:07:59;3.50;99.90
8563;DHT22;16392;52.508;13.468;2024-02-14T05:10:26;3.50;99.90
8563;DHT22;16392;52.508;13.468;2024-02-14T05:12:54;3.50;99.90
8563;DHT22;16392;52.508;13.468;2024-02-14T05:15:22;3.50;99.90
8563;DHT22;16392;52.508;13.468;2024-02-14T05:17:49;3.50;99.90
8563;DHT22;16392;52.508;13.468;2024-02-14T05:20:16;3.50;99.90
8563;DHT22;16392;52.508;13.468;2024-02-14T05:22:43;3.50;99.90
8563;DHT22;16392;52.508;13.468;2024-02-14T05:25:10;3.60;99.90
8563;DHT22;16392;52.508;13.468;2024-02-14T05:27:37;3.60;99.90
8563;DHT22;16392;52.508;13.468;2024-02-14T05:30:06;3.60;99.90
8563;DHT22;16392;52.508;13.468;2024-02-14T05:32:35;3.60;99.90
8563;DHT22;16392;52.508;13.468;2024-02-14T05:35:02;3.70;99.90
8563;DHT22;16392;52.508;13.468;2024-02-14T05:37:31;3.70;99.90
8563;DHT22;16392;52.508;13.468;2024-02-14T05:39:58;3.70;99.90
8563;DHT22;16392;52.508;13.468;2024-02-14T05:42:25;3.70;99.90
8563;DHT22;16392;52.508;13.468;2024-02-14T05:44:52;3.70;99.90
8563;DHT22;16392;52.508;13.468;2024-02-14T05:47:19;3.80;99.90
8563;DHT22;16392;52.508;13.468;2024-02-14T05:49:47;3.80;99.90
8563;DHT22;16392;52.508;13.468;2024-02-14T05:52:13;3.80;99.90
8563;DHT22;16392;52.508;13.468;2024-02-14T05:54:41;3.90;99.90
8563;DHT22;16392;52.508;13.468;2024-02-14T05:57:08;3.80;99.90
8563;DHT22;16392;52.508;13.468;2024-02-14T05:59:35;3.90;99.90
8563;DHT22;16392;52.508;13.468;2024-02-14T06:02:02;3.90;99.90
8563;DHT22;16392;52.508;13.468;2024-02-14T06:04:37;4.00;99.90
8563;DHT22;16392;52.508;13.468;2024-02-14T06:07:05;4.00;99.90
8563;DHT22;16392;52.508;13.468;2024-02-14T06:09:34;4.00;99.90
8563;DHT22;16392;52.508;13.468;2024-02-14T06:12:01;4.10;99.90
8563;DHT22;16392;52.508;13.468;2024-02-14T06:14:29;4.10;99.90
8563;DHT22;16392;52.508;13.468;2024-02-14T06:16:56;4.10;99.90
8563;DHT22;16392;52.508;13.468;2024-02-14T06:19:23;4.10;99.90
8563;DHT22;16392;52.508;13.468;2024-02-14T06:21:49;4.10;99.90
8563;DHT22;16392;52.508;13.468;2024-02-14T06:24:18;4.10;99.90
8563;DHT22;16392;52.508;13.468;2024-02-14T06:26:45;4.10;99.90
8563;DHT22;16392;52.508;13.468;2024-02-14T06:29:12;4.20;99.90
8563;DHT22;16392;52.508;13.468;2024-02-14T06:31:40;4.20;99.90
8563;DHT22;16392;52.508;13.468;2024-02-14T06:34:07;4.20;99.90
8563;DHT22;16392;52.508;13.468;2024-02-14T06:36:34;4.20;99.90
8563;DHT22;16392;52.508;13.468;2024-02-14T06:39:01;4.20;99.90
8563;DHT22;16392;52.508;13.468;2024-02-14T06:41:29;4.20;99.90
8563;DHT22;16392;52.508;13.468;2024-02-14T06:43:56;4.20;99.90
8563;DHT22;16392;52.508;13.468;2024-02-14T06:46:23;4.20;99.90
8563;DHT22;16392;52.508;13.468;2024-02-14T06:48:50;4.30;99.90
8563;DHT22;16392;52.508;13.468;2024-02-14T06:51:17;4.30;99.90
8563;DHT22;16392;52.508;13.468;2024-02-14T06:53:45;4.30;99.90
8563;DHT22;16392;52.508;13.468;2024-02-14T06:56:12;4.30;99.90
8563;DHT22;16392;52.508;13.468;2024-02-14T06:58:40;4.40;99.90
8563;DHT22;16392;52.508;13.468;2024-02-14T07:01:07;4.40;99.90
8563;DHT22;16392;52.508;13.468;2024-02-14T07:03:35;4.50;99.90
8563;DHT22;16392;52.508;13.468;2024-02-14T07:06:01;4.50;99.90
8563;DHT22;16392;52.508;13.468;2024-02-14T07:08:28;4.60;99.90
8563;DHT22;16392;52.508;13.468;2024-02-14T07:10:55;4.60;99.90
8563;DHT22;16392;52.508;13.468;2024-02-14T07:13:22;4.70;99.90
8563;DHT22;16392;52.508;13.468;2024-02-14T07:15:50;4.70;99.90
8563;DHT22;16392;52.508;13.468;2024-02-14T07:18:17;4.80;99.90
8563;DHT22;16392;52.508;13.468;2024-02-14T07:20:45;4.80;99.90
8563;DHT22;16392;52.508;13.468;2024-02-14T07:23:11;4.80;99.90
8563;DHT22;16392;52.508;13.468;2024-02-14T07:25:38;4.90;99.90
8563;DHT22;16392;52.508;13.468;2024-02-14T07:28:05;4.90;99.90
8563;DHT22;16392;52.508;13.468;2024-02-14T07:30:32;4.90;99.90
8563;DHT22;16392;52.508;13.468;2024-02-14T07:33:00;5.00;99.90
8563;DHT22;16392;52.508;13.468;2024-02-14T07:35:27;5.00;99.90
8563;DHT22;16392;52.508;13.468;2024-02-14T07:37:55;5.10;99.90
8563;DHT22;16392;52.508;13.468;2024-02-14T07:40:22;5.20;99.90
8563;DHT22;16392;52.508;13.468;2024-02-14T07:42:49;5.30;99.90
8563;DHT22;16392;52.508;13.468;2024-02-14T07:45:15;5.30;99.90
8563;DHT22;16392;52.508;13.468;2024-02-14T07:47:43;5.30;99.90
8563;DHT22;16392;52.508;13.468;2024-02-14T07:50:11;5.40;99.90
8563;DHT22;16392;52.508;13.468;2024-02-14T07:52:41;5.40;99.90
8563;DHT22;16392;52.508;13.468;2024-02-14T07:55:08;5.50;99.90
8563;DHT22;16392;52.508;13.468;2024-02-14T07:57:37;5.40;99.90
8563;DHT22;16392;52.508;13.468;2024-02-14T08:00:05;5.50;99.90
8563;DHT22;16392;52.508;13.468;2024-02-14T08:02:33;5.50;99.90
8563;DHT22;16392;52.508;13.468;2024-02-14T08:05:00;5.50;99.90
8563;DHT22;16392;52.508;13.468;2024-02-14T08:07:28;5.60;99.90
8563;DHT22;16392;52.508;13.468;2024-02-14T08:09:56;5.60;99.90
8563;DHT22;16392;52.508;13.468;2024-02-14T08:12:22;5.60;99.90
8563;DHT22;16392;52.508;13.468;2024-02-14T08:14:51;5.60;99.90
8563;DHT22;16392;52.508;13.468;2024-02-14T08:17:18;5.60;99.90
8563;DHT22;16392;52.508;13.468;2024-02-14T08:19:45;5.70;99.90
8563;DHT22;16392;52.508;13.468;2024-02-14T08:22:12;5.70;99.90
8563;DHT22;16392;52.508;13.468;2024-02-14T08:24:40;5.70;99.90
8563;DHT22;16392;52.508;13.468;2024-02-14T08:27:07;5.80;99.90
8563;DHT22;16392;52.508;13.468;2024-02-14T08:29:33;5.80;99.90
8563;DHT22;16392;52.508;13.468;2024-02-14T08:32:00;5.80;99.90
8563;DHT22;16392;52.508;13.468;2024-02-14T08:34:27;5.90;99.90
8563;DHT22;16392;52.508;13.468;2024-02-14T08:36:54;5.90;99.90
8563;DHT22;16392;52.508;13.468;2024-02-14T08:39:22;5.90;99.90
8563;DHT22;16392;52.508;13.468;2024-02-14T08:41:50;5.90;99.90
8563;DHT22;16392;52.508;13.468;2024-02-14T08:44:16;5.80;99.90
8563;DHT22;16392;52.508;13.468;2024-02-14T08:46:43;5.80;99.90
8563;DHT22;16392;52.508;13.468;2024-02-14T08:49:14;5.90;99.90
8563;DHT22;16392;52.508;13.468;2024-02-14T08:51:40;5.80;99.90
8563;DHT22;16392;52.508;13.468;2024-02-14T08:54:09;5.90;99.90
8563;DHT22;16392;52.508;13.468;2024-02-14T08:56:36;5.90;99.90
8563;DHT22;16392;52.508;13.468;2024-02-14T08:59:04;5.90;99.90
8563;DHT22;16392;52.508;13.468;2024-02-14T09:01:32;5.90;99.90
8563;DHT22;16392;52.508;13.468;2024-02-14T09:03:59;5.90;99.90
8563;DHT22;16392;52.508;13.468;2024-02-14T09:06:26;6.00;99.90
8563;DHT22;16392;52.508;13.468;2024-02-14T09:08:53;6.00;99.90
8563;DHT22;16392;52.508;13.468;2024-02-14T09:11:20;6.00;99.90
8563;DHT22;16392;52.508;13.468;2024-02-14T09:13:48;6.00;99.90
8563;DHT22;16392;52.508;13.468;2024-02-14T09:16:20;6.10;99.90
8563;DHT22;16392;52.508;13.468;2024-02-14T09:18:48;6.20;99.90
8563;DHT22;16392;52.508;13.468;2024-02-14T09:21:14;6.20;99.90
8563;DHT22;16392;52.508;13.468;2024-02-14T09:23:42;6.20;99.90
8563;DHT22;16392;52.508;13.468;2024-02-14T09:26:10;6.20;99.90
8563;DHT22;16392;52.508;13.468;2024-02-14T09:28:40;6.20;99.90
8563;DHT22;16392;52.508;13.468;2024-02-14T09:31:06;6.30;99.90
8563;DHT22;16392;52.508;13.468;2024-02-14T09:33:36;6.30;99.90
8563;DHT22;16392;52.508;13.468;2024-02-14T09:36:03;6.40;99.90
8563;DHT22;16392;52.508;13.468;2024-02-14T09:38:30;6.40;99.90
8563;DHT22;16392;52.508;13.468;2024-02-14T09:41:01;6.40;99.90
8563;DHT22;16392;52.508;13.468;2024-02-14T09:43:36;6.40;99.90
8563;DHT22;16392;52.508;13.468;2024-02-14T09:46:04;6.50;99.90
8563;DHT22;16392;52.508;13.468;2024-02-14T09:48:33;6.50;99.90
8563;DHT22;16392;52.508;13.468;2024-02-14T09:51:02;6.50;99.90
8563;DHT22;16392;52.508;13.468;2024-02-14T09:53:29;6.60;99.90
8563;DHT22;16392;52.508;13.468;2024-02-14T09:55:57;6.60;99.90
8563;DHT22;16392;52.508;13.468;2024-02-14T09:58:25;6.60;99.90
8563;DHT22;16392;52.508;13.468;2024-02-14T10:00:53;6.60;99.90
8563;DHT22;16392;52.508;13.468;2024-02-14T10:03:19;6.70;99.90
8563;DHT22;16392;52.508;13.468;2024-02-14T10:05:46;6.70;99.90
8563;DHT22;16392;52.508;13.468;2024-02-14T10:08:15;6.60;99.90
8563;DHT22;16392;52.508;13.468;2024-02-14T10:10:42;6.60;99.90
8563;DHT22;16392;52.508;13.468;2024-02-14T10:13:10;6.60;99.90
8563;DHT22;16392;52.508;13.468;2024-02-14T10:15:37;6.70;99.90
8563;DHT22;16392;52.508;13.468;2024-02-14T10:18:04;6.70;99.90
8563;DHT22;16392;52.508;13.468;2024-02-14T10:20:31;6.70;99.90
8563;DHT22;16392;52.508;13.468;2024-02-14T10:23:03;6.80;99.90
8563;DHT22;16392;52.508;13.468;2024-02-14T10:25:31;6.80;99.90
8563;DHT22;16392;52.508;13.468;2024-02-14T10:28:03;6.80;99.90
8563;DHT22;16392;52.508;13.468;2024-02-14T10:30:31;6.90;99.90
8563;DHT22;16392;52.508;13.468;2024-02-14T10:32:58;6.90;99.90
8563;DHT22;16392;52.508;13.468;2024-02-14T10:35:25;7.00;99.90
8563;DHT22;16392;52.508;13.468;2024-02-14T10:37:52;6.90;99.90
8563;DHT22;16392;52.508;13.468;2024-02-14T10:40:27;7.00;99.90
8563;DHT22;16392;52.508;13.468;2024-02-14T10:42:55;7.00;99.90
8563;DHT22;16392;52.508;13.468;2024-02-14T10:45:24;7.00;99.90
8563;DHT22;16392;52.508;13.468;2024-02-14T10:47:51;7.00;99.90
8563;DHT22;16392;52.508;13.468;2024-02-14T10:50:21;7.00;99.90
8563;DHT22;16392;52.508;13.468;2024-02-14T10:52:48;7.10;99.90
8563;DHT22;16392;52.508;13.468;2024-02-14T10:55:17;7.00;99.90
8563;DHT22;16392;52.508;13.468;2024-02-14T10:57:44;7.00;99.90
8563;DHT22;16392;52.508;13.468;2024-02-14T11:00:15;7.10;99.90
8563;DHT22;16392;52.508;13.468;2024-02-14T11:02:43;7.10;99.90
8563;DHT22;16392;52.508;13.468;2024-02-14T11:05:12;7.10;99.90
8563;DHT22;16392;52.508;13.468;2024-02-14T11:07:44;7.20;99.90
8563;DHT22;16392;52.508;13.468;2024-02-14T11:10:13;7.40;99.90
8563;DHT22;16392;52.508;13.468;2024-02-14T11:12:40;7.50;99.90
8563;DHT22;16392;52.508;13.468;2024-02-14T11:15:15;7.60;99.90
8563;DHT22;16392;52.508;13.468;2024-02-14T11:17:43;7.70;99.90
8563;DHT22;16392;52.508;13.468;2024-02-14T11:20:18;7.80;99.90
8563;DHT22;16392;52.508;13.468;2024-02-14T11:22:53;7.80;99.90
8563;DHT22;16392;52.508;13.468;2024-02-14T11:25:23;7.90;99.90
8563;DHT22;16392;52.508;13.468;2024-02-14T11:27:54;8.00;99.90
8563;DHT22;16392;52.508;13.468;2024-02-14T11:30:34;7.90;99.90
8563;DHT22;16392;52.508;13.468;2024-02-14T11:33:13;7.90;99.90
8563;DHT22;16392;52.508;13.468;2024-02-14T11:35:41;7.80;99.90
8563;DHT22;16392;52.508;13.468;2024-02-14T11:38:09;7.80;99.90
8563;DHT22;16392;52.508;13.468;2024-02-14T11:40:35;7.80;99.90
8563;DHT22;16392;52.508;13.468;2024-02-14T11:43:04;7.80;99.90
8563;DHT22;16392;52.508;13.468;2024-02-14T11:45:32;7.90;99.90
8563;DHT22;16392;52.508;13.468;2024-02-14T11:47:59;7.90;99.90
8563;DHT22;16392;52.508;13.468;2024-02-14T11:50:26;7.90;99.90
8563;DHT22;16392;52.508;13.468;2024-02-14T11:52:54;7.80;99.90
8563;DHT22;16392;52.508;13.468;2024-02-14T11:55:27;7.90;99.90
8563;DHT22;16392;52.508;13.468;2024-02-14T11:57:54;7.90;99.90
8563;DHT22;16392;52.508;13.468;2024-02-14T12:00:22;7.90;99.90
8563;DHT22;16392;52.508;13.468;2024-02-14T12:02:51;7.90;99.90
8563;DHT22;16392;52.508;13.468;2024-02-14T12:05:19;7.90;99.90
8563;DHT22;16392;52.508;13.468;2024-02-14T12:07:46;7.90;99.90
8563;DHT22;16392;52.508;13.468;2024-02-14T12:10:13;7.90;99.90
8563;DHT22;16392;52.508;13.468;2024-02-14T12:12:39;8.00;99.90
8563;DHT22;16392;52.508;13.468;2024-02-14T12:15:09;8.00;99.90
8563;DHT22;16392;52.508;13.468;2024-02-14T12:17:36;8.00;99.90
8563;DHT22;16392;52.508;13.468;2024-02-14T12:20:10;8.00;99.90
8563;DHT22;16392;52.508;13.468;2024-02-14T12:22:40;8.00;99.90
8563;DHT22;16392;52.508;13.468;2024-02-14T12:25:07;8.10;99.90
8563;DHT22;16392;52.508;13.468;2024-02-14T12:27:36;8.10;99.90
8563;DHT22;16392;52.508;13.468;2024-02-14T12:30:04;8.10;99.90
8563;DHT22;16392;52.508;13.468;2024-02-14T12:32:31;8.10;99.90
8563;DHT22;16392;52.508;13.468;2024-02-14T12:34:58;8.10;99.90
8563;DHT22;16392;52.508;13.468;2024-02-14T12:37:26;8.20;99.90
8563;DHT22;16392;52.508;13.468;2024-02-14T12:39:53;8.20;99.90
8563;DHT22;16392;52.508;13.468;2024-02-14T12:42:21;8.30;99.90
8563;DHT22;16392;52.508;13.468;2024-02-14T12:44:51;8.20;99.90
8563;DHT22;16392;52.508;13.468;2024-02-14T12:47:18;8.30;99.90
8563;DHT22;16392;52.508;13.468;2024-02-14T12:49:47;8.40;99.90
8563;DHT22;16392;52.508;13.468;2024-02-14T12:52:14;8.40;99.90
8563;DHT22;16392;52.508;13.468;2024-02-14T12:54:43;8.30;99.90
8563;DHT22;16392;52.508;13.468;2024-02-14T12:57:10;8.40;99.90
8563;DHT22;16392;52.508;13.468;2024-02-14T12:59:37;8.40;99.90
8563;DHT22;16392;52.508;13.468;2024-02-14T13:02:03;8.50;99.90
8563;DHT22;16392;52.508;13.468;2024-02-14T13:04:32;8.50;99.90
8563;DHT22;16392;52.508;13.468;2024-02-14T13:06:59;8.50;99.90
8563;DHT22;16392;52.508;13.468;2024-02-14T13:09:26;8.60;99.90
8563;DHT22;16392;52.508;13.468;2024-02-14T13:11:54;8.70;99.90
8563;DHT22;16392;52.508;13.468;2024-02-14T13:14:21;8.70;99.90
8563;DHT22;16392;52.508;13.468;2024-02-14T13:16:48;8.80;99.90
8563;DHT22;16392;52.508;13.468;2024-02-14T13:19:15;8.80;99.90
8563;DHT22;16392;52.508;13.468;2024-02-14T13:21:41;8.80;99.90
8563;DHT22;16392;52.508;13.468;2024-02-14T13:24:11;8.80;99.90
8563;DHT22;16392;52.508;13.468;2024-02-14T13:26:39;8.70;99.90
8563;DHT22;16392;52.508;13.468;2024-02-14T13:29:07;8.70;99.90
8563;DHT22;16392;52.508;13.468;2024-02-14T13:31:34;8.80;99.90
8563;DHT22;16392;52.508;13.468;2024-02-14T13:34:00;8.70;99.90
8563;DHT22;16392;52.508;13.468;2024-02-14T13:36:30;8.80;99.90
8563;DHT22;16392;52.508;13.468;2024-02-14T13:38:57;8.70;99.90
8563;DHT22;16392;52.508;13.468;2024-02-14T13:41:24;8.70;99.90
8563;DHT22;16392;52.508;13.468;2024-02-14T13:43:51;8.70;99.90
8563;DHT22;16392;52.508;13.468;2024-02-14T13:46:19;8.70;99.90
8563;DHT22;16392;52.508;13.468;2024-02-14T13:48:45;8.70;99.90
8563;DHT22;16392;52.508;13.468;2024-02-14T13:51:12;8.80;99.90
8563;DHT22;16392;52.508;13.468;2024-02-14T13:53:39;8.80;99.90
8563;DHT22;16392;52.508;13.468;2024-02-14T13:56:06;8.80;99.90
8563;DHT22;16392;52.508;13.468;2024-02-14T13:58:33;8.80;99.90
8563;DHT22;16392;52.508;13.468;2024-02-14T14:01:00;8.80;99.90
8563;DHT22;16392;52.508;13.468;2024-02-14T14:03:28;8.80;99.90
8563;DHT22;16392;52.508;13.468;2024-02-14T14:05:55;8.80;99.90
8563;DHT22;16392;52.508;13.468;2024-02-14T14:08:22;8.90;99.90
8563;DHT22;16392;52.508;13.468;2024-02-14T14:10:49;8.90;99.90
8563;DHT22;16392;52.508;13.468;2024-02-14T14:13:15;9.00;99.90
8563;DHT22;16392;52.508;13.468;2024-02-14T14:15:42;9.00;99.90
8563;DHT22;16392;52.508;13.468;2024-02-14T14:18:09;9.00;99.90
8563;DHT22;16392;52.508;13.468;2024-02-14T14:20:38;9.00;99.90
8563;DHT22;16392;52.508;13.468;2024-02-14T14:23:05;9.00;99.90
8563;DHT22;16392;52.508;13.468;2024-02-14T14:25:34;9.00;99.90
8563;DHT22;16392;52.508;13.468;2024-02-14T14:28:03;9.10;99.90
8563;DHT22;16392;52.508;13.468;2024-02-14T14:30:30;9.10;99.90
8563;DHT22;16392;52.508;13.468;2024-02-14T14:32:57;9.10;99.90
8563;DHT22;16392;52.508;13.468;2024-02-14T14:35:24;9.10;99.90
8563;DHT22;16392;52.508;13.468;2024-02-14T14:37:52;9.10;99.90
8563;DHT22;16392;52.508;13.468;2024-02-14T14:40:21;9.10;99.90
8563;DHT22;16392;52.508;13.468;2024-02-14T14:42:48;9.10;99.90
8563;DHT22;16392;52.508;13.468;2024-02-14T14:45:15;9.10;99.90
8563;DHT22;16392;52.508;13.468;2024-02-14T14:47:42;9.10;99.90
8563;DHT22;16392;52.508;13.468;2024-02-14T14:50:09;9.10;99.90
8563;DHT22;16392;52.508;13.468;2024-02-14T14:52:36;9.20;99.90
8563;DHT22;16392;52.508;13.468;2024-02-14T14:55:05;9.20;99.90
8563;DHT22;16392;52.508;13.468;2024-02-14T14:57:31;9.20;99.90
8563;DHT22;16392;52.508;13.468;2024-02-14T15:00:00;9.20;99.90
8563;DHT22;16392;52.508;13.468;2024-02-14T15:02:27;9.20;99.90
8563;DHT22;16392;52.508;13.468;2024-02-14T15:04:54;9.20;99.90
8563;DHT22;16392;52.508;13.468;2024-02-14T15:07:21;9.20;99.90
8563;DHT22;16392;52.508;13.468;2024-02-14T15:09:48;9.30;99.90
8563;DHT22;16392;52.508;13.468;2024-02-14T15:12:15;9.30;99.90
8563;DHT22;16392;52.508;13.468;2024-02-14T15:14:42;9.30;99.90
8563;DHT22;16392;52.508;13.468;2024-02-14T15:17:09;9.30;99.90
8563;DHT22;16392;52.508;13.468;2024-02-14T15:19:35;9.30;99.90
8563;DHT22;16392;52.508;13.468;2024-02-14T15:22:02;9.30;99.90
8563;DHT22;16392;52.508;13.468;2024-02-14T15:24:29;9.40;99.90
8563;DHT22;16392;52.508;13.468;2024-02-14T15:26:55;9.40;99.90
8563;DHT22;16392;52.508;13.468;2024-02-14T15:29:27;9.40;99.90
8563;DHT22;16392;52.508;13.468;2024-02-14T15:32:11;9.40;99.90
8563;DHT22;16392;52.508;13.468;2024-02-14T15:34:55;9.50;99.90
8563;DHT22;16392;52.508;13.468;2024-02-14T15:37:22;9.50;99.90
8563;DHT22;16392;52.508;13.468;2024-02-14T15:39:49;9.50;99.90
8563;DHT22;16392;52.508;13.468;2024-02-14T15:42:17;9.50;99.90
8563;DHT22;16392;52.508;13.468;2024-02-14T15:44:45;9.60;99.90
8563;DHT22;16392;52.508;13.468;2024-02-14T15:47:11;9.60;99.90